sensor_id;sensor_type;location;lat;lon;timestamp;P1;durP1;ratioP1;P2;durP2;ratioP2
62788;SDS011;66401;42.016;21.454;2023-12-28T00:01:23;42.10;;;21.97;;
62788;SDS011;66401;42.016;21.454;2023-12-28T00:03:49;40.17;;;21.97;;
62788;SDS011;66401;42.016;21.454;2023-12-28T00:06:15;31.20;;;19.97;;
62788;SDS011;66401;42.016;21.454;2023-12-28T00:08:41;36.30;;;21.00;;
62788;SDS011;66401;42.016;21.454;2023-12-28T00:11:07;38.53;;;21.97;;
62788;SDS011;66401;42.016;21.454;2023-12-28T00:13:32;36.10;;;21.10;;
62788;SDS011;66401;42.016;21.454;2023-12-28T00:15:58;39.87;;;20.67;;
62788;SDS011;66401;42.016;21.454;2023-12-28T00:18:24;37.07;;;21.60;;
62788;SDS011;66401;42.016;21.454;2023-12-28T00:20:49;47.13;;;23.30;;
62788;SDS011;66401;42.016;21.454;2023-12-28T00:23:15;41.80;;;23.73;;
62788;SDS011;66401;42.016;21.454;2023-12-28T00:25:40;42.97;;;23.50;;
62788;SDS011;66401;42.016;21.454;2023-12-28T00:28:06;45.83;;;25.33;;
62788;SDS011;66401;42.016;21.454;2023-12-28T00:30:32;50.40;;;25.20;;
62788;SDS011;66401;42.016;21.454;2023-12-28T00:32:57;52.73;;;26.83;;
62788;SDS011;66401;42.016;21.454;2023-12-28T00:35:23;45.33;;;26.17;;
62788;SDS011;66401;42.016;21.454;2023-12-28T00:37:48;48.27;;;26.67;;
62788;SDS011;66401;42.016;21.454;2023-12-28T00:40:14;47.83;;;26.03;;
62788;SDS011;66401;42.016;21.454;2023-12-28T00:42:40;40.67;;;25.73;;
62788;SDS011;66401;42.016;21.454;2023-12-28T00:45:08;49.67;;;25.47;;
62788;SDS011;66401;42.016;21.454;2023-12-28T00:47:35;59.30;;;27.27;;
62788;SDS011;66401;42.016;21.454;2023-12-28T00:50:00;57.73;;;28.73;;
62788;SDS011;66401;42.016;21.454;2023-12-28T00:52:26;60.23;;;31.77;;
62788;SDS011;66401;42.016;21.454;2023-12-28T00:54:51;66.07;;;32.77;;
62788;SDS011;66401;42.016;21.454;2023-12-28T00:57:17;71.77;;;38.73;;
62788;SDS011;66401;42.016;21.454;2023-12-28T00:59:42;75.07;;;38.90;;
62788;SDS011;66401;42.016;21.454;2023-12-28T01:02:08;76.13;;;37.70;;
62788;SDS011;66401;42.016;21.454;2023-12-28T01:04:34;76.07;;;36.90;;
62788;SDS011;66401;42.016;21.454;2023-12-28T01:07:00;68.17;;;34.03;;
62788;SDS011;66401;42.016;21.454;2023-12-28T01:09:27;62.53;;;32.67;;
62788;SDS011;66401;42.016;21.454;2023-12-28T01:11:53;59.27;;;31.80;;
62788;SDS011;66401;42.016;21.454;2023-12-28T01:14:18;55.87;;;30.30;;
62788;SDS011;66401;42.016;21.454;2023-12-28T01:16:44;58.20;;;31.17;;
62788;SDS011;66401;42.016;21.454;2023-12-28T01:19:09;62.03;;;31.20;;
62788;SDS011;66401;42.016;21.454;2023-12-28T01:21:35;66.97;;;34.50;;
62788;SDS011;66401;42.016;21.454;2023-12-28T01:24:00;76.27;;;34.13;;
62788;SDS011;66401;42.016;21.454;2023-12-28T01:26:26;66.17;;;33.73;;
62788;SDS011;66401;42.016;21.454;2023-12-28T01:28:52;70.10;;;34.10;;
62788;SDS011;66401;42.016;21.454;2023-12-28T01:31:17;65.27;;;34.57;;
62788;SDS011;66401;42.016;21.454;2023-12-28T01:33:42;65.13;;;34.03;;
62788;SDS011;66401;42.016;21.454;2023-12-28T01:36:17;60.03;;;30.47;;
62788;SDS011;66401;42.016;21.454;2023-12-28T01:38:44;64.00;;;32.60;;
62788;SDS011;66401;42.016;21.454;2023-12-28T01:41:10;62.10;;;33.27;;
62788;SDS011;66401;42.016;21.454;2023-12-28T01:43:35;62.53;;;35.00;;
62788;SDS011;66401;42.016;21.454;2023-12-28T01:46:01;57.53;;;30.43;;
62788;SDS011;66401;42.016;21.454;2023-12-28T01:48:27;67.10;;;34.83;;
62788;SDS011;66401;42.016;21.454;2023-12-28T01:50:54;69.90;;;34.87;;
62788;SDS011;66401;42.016;21.454;2023-12-28T01:53:21;72.97;;;36.33;;
62788;SDS011;66401;42.016;21.454;2023-12-28T01:55:47;73.50;;;38.23;;
62788;SDS011;66401;42.016;21.454;2023-12-28T01:58:13;75.20;;;36.50;;
62788;SDS011;66401;42.016;21.454;2023-12-28T02:00:39;74.13;;;38.23;;
62788;SDS011;66401;42.016;21.454;2023-12-28T02:03:06;80.87;;;40.90;;
62788;SDS011;66401;42.016;21.454;2023-12-28T02:05:32;77.60;;;38.10;;
62788;SDS011;66401;42.016;21.454;2023-12-28T02:07:58;75.13;;;38.57;;
62788;SDS011;66401;42.016;21.454;2023-12-28T02:10:23;78.10;;;41.53;;
62788;SDS011;66401;42.016;21.454;2023-12-28T02:12:49;75.80;;;40.23;;
62788;SDS011;66401;42.016;21.454;2023-12-28T02:15:15;68.93;;;37.03;;
62788;SDS011;66401;42.016;21.454;2023-12-28T02:17:58;70.87;;;34.50;;
62788;SDS011;66401;42.016;21.454;2023-12-28T02:20:29;65.73;;;33.07;;
62788;SDS011;66401;42.016;21.454;2023-12-28T02:22:55;60.00;;;33.53;;
62788;SDS011;66401;42.016;21.454;2023-12-28T02:25:21;57.20;;;30.93;;
62788;SDS011;66401;42.016;21.454;2023-12-28T02:27:47;60.93;;;32.37;;
62788;SDS011;66401;42.016;21.454;2023-12-28T02:30:15;57.13;;;30.07;;
62788;SDS011;66401;42.016;21.454;2023-12-28T02:35:14;57.83;;;30.83;;
62788;SDS011;66401;42.016;21.454;2023-12-28T02:37:44;64.30;;;35.50;;
62788;SDS011;66401;42.016;21.454;2023-12-28T02:40:16;80.70;;;40.10;;
62788;SDS011;66401;42.016;21.454;2023-12-28T02:42:42;81.47;;;40.00;;
62788;SDS011;66401;42.016;21.454;2023-12-28T02:45:08;77.77;;;37.93;;
62788;SDS011;66401;42.016;21.454;2023-12-28T02:47:34;83.17;;;41.13;;
62788;SDS011;66401;42.016;21.454;2023-12-28T02:50:00;66.70;;;35.33;;
62788;SDS011;66401;42.016;21.454;2023-12-28T02:52:25;77.13;;;37.20;;
62788;SDS011;66401;42.016;21.454;2023-12-28T02:54:51;66.17;;;36.73;;
62788;SDS011;66401;42.016;21.454;2023-12-28T02:57:16;67.20;;;34.60;;
62788;SDS011;66401;42.016;21.454;2023-12-28T02:59:46;60.00;;;32.73;;
62788;SDS011;66401;42.016;21.454;2023-12-28T03:02:11;58.70;;;31.20;;
62788;SDS011;66401;42.016;21.454;2023-12-28T03:04:37;59.20;;;31.73;;
62788;SDS011;66401;42.016;21.454;2023-12-28T03:07:02;54.97;;;30.60;;
62788;SDS011;66401;42.016;21.454;2023-12-28T03:09:29;58.83;;;30.00;;
62788;SDS011;66401;42.016;21.454;2023-12-28T03:11:54;55.23;;;28.00;;
62788;SDS011;66401;42.016;21.454;2023-12-28T03:14:20;52.50;;;26.63;;
62788;SDS011;66401;42.016;21.454;2023-12-28T03:16:46;66.93;;;33.17;;
62788;SDS011;66401;42.016;21.454;2023-12-28T03:19:12;73.00;;;35.47;;
62788;SDS011;66401;42.016;21.454;2023-12-28T03:21:40;70.33;;;37.30;;
62788;SDS011;66401;42.016;21.454;2023-12-28T03:24:07;67.77;;;34.93;;
62788;SDS011;66401;42.016;21.454;2023-12-28T03:26:32;72.83;;;37.87;;
62788;SDS011;66401;42.016;21.454;2023-12-28T03:29:02;71.47;;;36.03;;
62788;SDS011;66401;42.016;21.454;2023-12-28T03:31:28;68.00;;;33.30;;
62788;SDS011;66401;42.016;21.454;2023-12-28T03:33:53;53.80;;;29.20;;
62788;SDS011;66401;42.016;21.454;2023-12-28T03:36:19;42.57;;;23.73;;
62788;SDS011;66401;42.016;21.454;2023-12-28T03:38:45;40.97;;;23.00;;
62788;SDS011;66401;42.016;21.454;2023-12-28T03:41:17;38.30;;;22.73;;
62788;SDS011;66401;42.016;21.454;2023-12-28T03:43:44;40.67;;;23.00;;
62788;SDS011;66401;42.016;21.454;2023-12-28T03:46:09;43.10;;;22.87;;
62788;SDS011;66401;42.016;21.454;2023-12-28T03:48:36;43.97;;;22.53;;
62788;SDS011;66401;42.016;21.454;2023-12-28T03:51:02;39.57;;;21.87;;
62788;SDS011;66401;42.016;21.454;2023-12-28T03:53:28;38.50;;;21.47;;
62788;SDS011;66401;42.016;21.454;2023-12-28T03:55:53;35.37;;;21.23;;
62788;SDS011;66401;42.016;21.454;2023-12-28T03:58:19;38.33;;;22.17;;
62788;SDS011;66401;42.016;21.454;2023-12-28T04:00:44;39.50;;;22.73;;
62788;SDS011;66401;42.016;21.454;2023-12-28T04:03:10;44.17;;;22.53;;
62788;SDS011;66401;42.016;21.454;2023-12-28T04:05:35;40.03;;;23.80;;
62788;SDS011;66401;42.016;21.454;2023-12-28T04:08:01;41.33;;;22.80;;
62788;SDS011;66401;42.016;21.454;2023-12-28T04:10:32;45.03;;;24.53;;
62788;SDS011;66401;42.016;21.454;2023-12-28T04:12:58;43.37;;;23.90;;
62788;SDS011;66401;42.016;21.454;2023-12-28T04:15:25;49.57;;;26.87;;
62788;SDS011;66401;42.016;21.454;2023-12-28T04:17:51;43.90;;;24.53;;
62788;SDS011;66401;42.016;21.454;2023-12-28T04:20:17;49.40;;;22.47;;
62788;SDS011;66401;42.016;21.454;2023-12-28T04:22:42;35.93;;;20.97;;
62788;SDS011;66401;42.016;21.454;2023-12-28T04:25:08;33.47;;;20.00;;
62788;SDS011;66401;42.016;21.454;2023-12-28T04:27:36;44.87;;;23.57;;
62788;SDS011;66401;42.016;21.454;2023-12-28T04:30:02;42.37;;;22.03;;
62788;SDS011;66401;42.016;21.454;2023-12-28T04:32:30;32.93;;;20.13;;
62788;SDS011;66401;42.016;21.454;2023-12-28T04:34:58;34.37;;;20.83;;
62788;SDS011;66401;42.016;21.454;2023-12-28T04:37:24;35.67;;;21.50;;
62788;SDS011;66401;42.016;21.454;2023-12-28T04:39:52;35.07;;;20.37;;
62788;SDS011;66401;42.016;21.454;2023-12-28T04:42:18;35.03;;;22.63;;
62788;SDS011;66401;42.016;21.454;2023-12-28T04:44:44;37.33;;;21.87;;
62788;SDS011;66401;42.016;21.454;2023-12-28T04:47:09;44.00;;;22.50;;
62788;SDS011;66401;42.016;21.454;2023-12-28T04:49:35;34.03;;;19.93;;
62788;SDS011;66401;42.016;21.454;2023-12-28T04:52:03;34.50;;;20.67;;
62788;SDS011;66401;42.016;21.454;2023-12-28T04:54:29;38.87;;;20.93;;
62788;SDS011;66401;42.016;21.454;2023-12-28T04:56:54;43.53;;;21.30;;
62788;SDS011;66401;42.016;21.454;2023-12-28T04:59:20;33.07;;;21.00;;
62788;SDS011;66401;42.016;21.454;2023-12-28T05:01:45;45.67;;;21.93;;
62788;SDS011;66401;42.016;21.454;2023-12-28T05:04:11;39.17;;;21.27;;
62788;SDS011;66401;42.016;21.454;2023-12-28T05:06:37;45.87;;;21.53;;
62788;SDS011;66401;42.016;21.454;2023-12-28T05:09:03;54.40;;;24.20;;
62788;SDS011;66401;42.016;21.454;2023-12-28T05:11:29;45.27;;;22.13;;
62788;SDS011;66401;42.016;21.454;2023-12-28T05:13:55;44.23;;;22.30;;
62788;SDS011;66401;42.016;21.454;2023-12-28T05:16:20;45.37;;;20.53;;
62788;SDS011;66401;42.016;21.454;2023-12-28T05:18:46;46.23;;;22.93;;
62788;SDS011;66401;42.016;21.454;2023-12-28T05:21:12;48.20;;;23.83;;
62788;SDS011;66401;42.016;21.454;2023-12-28T05:23:38;46.23;;;21.30;;
62788;SDS011;66401;42.016;21.454;2023-12-28T05:26:04;40.17;;;21.13;;
62788;SDS011;66401;42.016;21.454;2023-12-28T05:28:30;39.97;;;21.80;;
62788;SDS011;66401;42.016;21.454;2023-12-28T05:30:55;35.97;;;20.77;;
62788;SDS011;66401;42.016;21.454;2023-12-28T05:33:21;41.63;;;20.30;;
62788;SDS011;66401;42.016;21.454;2023-12-28T05:35:47;32.90;;;19.27;;
62788;SDS011;66401;42.016;21.454;2023-12-28T05:38:13;32.30;;;18.43;;
62788;SDS011;66401;42.016;21.454;2023-12-28T05:40:38;33.83;;;19.33;;
62788;SDS011;66401;42.016;21.454;2023-12-28T05:43:05;38.23;;;17.83;;
62788;SDS011;66401;42.016;21.454;2023-12-28T05:45:30;31.67;;;17.50;;
62788;SDS011;66401;42.016;21.454;2023-12-28T05:47:56;35.70;;;18.97;;
62788;SDS011;66401;42.016;21.454;2023-12-28T05:50:21;37.33;;;18.80;;
62788;SDS011;66401;42.016;21.454;2023-12-28T05:52:47;36.97;;;19.60;;
62788;SDS011;66401;42.016;21.454;2023-12-28T05:55:13;33.23;;;17.80;;
62788;SDS011;66401;42.016;21.454;2023-12-28T05:57:38;38.73;;;19.40;;
62788;SDS011;66401;42.016;21.454;2023-12-28T06:00:04;32.90;;;18.87;;
62788;SDS011;66401;42.016;21.454;2023-12-28T06:02:31;36.23;;;18.63;;
62788;SDS011;66401;42.016;21.454;2023-12-28T06:04:56;43.43;;;20.67;;
62788;SDS011;66401;42.016;21.454;2023-12-28T06:07:22;39.43;;;20.60;;
62788;SDS011;66401;42.016;21.454;2023-12-28T06:09:47;38.27;;;21.37;;
62788;SDS011;66401;42.016;21.454;2023-12-28T06:12:13;38.03;;;21.10;;
62788;SDS011;66401;42.016;21.454;2023-12-28T06:14:39;38.93;;;20.83;;
62788;SDS011;66401;42.016;21.454;2023-12-28T06:17:04;39.10;;;20.07;;
62788;SDS011;66401;42.016;21.454;2023-12-28T06:19:29;34.87;;;18.90;;
62788;SDS011;66401;42.016;21.454;2023-12-28T06:21:55;37.33;;;19.27;;
62788;SDS011;66401;42.016;21.454;2023-12-28T06:24:21;35.63;;;19.97;;
62788;SDS011;66401;42.016;21.454;2023-12-28T06:26:46;37.27;;;20.77;;
62788;SDS011;66401;42.016;21.454;2023-12-28T06:29:12;39.47;;;21.33;;
62788;SDS011;66401;42.016;21.454;2023-12-28T06:31:37;38.20;;;20.43;;
62788;SDS011;66401;42.016;21.454;2023-12-28T06:34:03;59.30;;;30.90;;
62788;SDS011;66401;42.016;21.454;2023-12-28T06:36:29;60.57;;;29.40;;
62788;SDS011;66401;42.016;21.454;2023-12-28T06:38:55;66.40;;;32.13;;
62788;SDS011;66401;42.016;21.454;2023-12-28T06:41:21;49.57;;;26.00;;
62788;SDS011;66401;42.016;21.454;2023-12-28T06:43:46;51.30;;;24.87;;
62788;SDS011;66401;42.016;21.454;2023-12-28T06:46:12;44.37;;;25.20;;
62788;SDS011;66401;42.016;21.454;2023-12-28T06:48:37;35.30;;;21.27;;
62788;SDS011;66401;42.016;21.454;2023-12-28T06:51:05;31.40;;;18.70;;
62788;SDS011;66401;42.016;21.454;2023-12-28T06:53:31;38.70;;;18.97;;
62788;SDS011;66401;42.016;21.454;2023-12-28T06:55:56;42.57;;;19.37;;
62788;SDS011;66401;42.016;21.454;2023-12-28T06:58:22;29.20;;;17.57;;
62788;SDS011;66401;42.016;21.454;2023-12-28T07:00:47;34.47;;;18.17;;
62788;SDS011;66401;42.016;21.454;2023-12-28T07:03:13;27.40;;;17.83;;
62788;SDS011;66401;42.016;21.454;2023-12-28T07:05:38;31.67;;;17.83;;
62788;SDS011;66401;42.016;21.454;2023-12-28T07:08:04;27.50;;;16.37;;
62788;SDS011;66401;42.016;21.454;2023-12-28T07:10:30;27.77;;;16.20;;
62788;SDS011;66401;42.016;21.454;2023-12-28T07:12:55;27.63;;;15.70;;
62788;SDS011;66401;42.016;21.454;2023-12-28T07:15:21;25.90;;;13.90;;
62788;SDS011;66401;42.016;21.454;2023-12-28T07:17:46;26.30;;;16.10;;
62788;SDS011;66401;42.016;21.454;2023-12-28T07:20:12;28.17;;;15.90;;
62788;SDS011;66401;42.016;21.454;2023-12-28T07:22:37;25.70;;;15.47;;
62788;SDS011;66401;42.016;21.454;2023-12-28T07:25:06;28.47;;;16.47;;
62788;SDS011;66401;42.016;21.454;2023-12-28T07:27:33;28.17;;;16.87;;
62788;SDS011;66401;42.016;21.454;2023-12-28T07:29:59;27.63;;;16.07;;
62788;SDS011;66401;42.016;21.454;2023-12-28T07:32:25;20.90;;;14.60;;
62788;SDS011;66401;42.016;21.454;2023-12-28T07:34:54;26.47;;;15.83;;
62788;SDS011;66401;42.016;21.454;2023-12-28T07:37:20;28.43;;;16.43;;
62788;SDS011;66401;42.016;21.454;2023-12-28T07:39:48;23.27;;;15.33;;
62788;SDS011;66401;42.016;21.454;2023-12-28T07:42:13;23.87;;;16.93;;
62788;SDS011;66401;42.016;21.454;2023-12-28T07:44:40;32.07;;;20.03;;
62788;SDS011;66401;42.016;21.454;2023-12-28T07:47:05;34.97;;;19.93;;
62788;SDS011;66401;42.016;21.454;2023-12-28T07:49:31;35.60;;;19.40;;
62788;SDS011;66401;42.016;21.454;2023-12-28T07:51:57;31.13;;;19.87;;
62788;SDS011;66401;42.016;21.454;2023-12-28T07:54:22;34.30;;;20.17;;
62788;SDS011;66401;42.016;21.454;2023-12-28T07:56:48;35.03;;;22.97;;
62788;SDS011;66401;42.016;21.454;2023-12-28T07:59:13;33.57;;;20.13;;
62788;SDS011;66401;42.016;21.454;2023-12-28T08:01:39;27.67;;;18.93;;
62788;SDS011;66401;42.016;21.454;2023-12-28T08:04:04;29.40;;;19.97;;
62788;SDS011;66401;42.016;21.454;2023-12-28T08:06:30;32.87;;;20.77;;
62788;SDS011;66401;42.016;21.454;2023-12-28T08:08:59;29.77;;;20.70;;
62788;SDS011;66401;42.016;21.454;2023-12-28T08:11:26;32.47;;;22.37;;
62788;SDS011;66401;42.016;21.454;2023-12-28T08:13:52;34.77;;;23.03;;
62788;SDS011;66401;42.016;21.454;2023-12-28T08:16:17;35.97;;;24.03;;
62788;SDS011;66401;42.016;21.454;2023-12-28T08:18:43;39.70;;;25.73;;
62788;SDS011;66401;42.016;21.454;2023-12-28T08:21:08;33.93;;;23.60;;
62788;SDS011;66401;42.016;21.454;2023-12-28T08:23:34;33.70;;;24.93;;
62788;SDS011;66401;42.016;21.454;2023-12-28T08:25:59;39.40;;;26.50;;
62788;SDS011;66401;42.016;21.454;2023-12-28T08:28:25;42.40;;;27.07;;
62788;SDS011;66401;42.016;21.454;2023-12-28T08:30:50;46.43;;;29.83;;
62788;SDS011;66401;42.016;21.454;2023-12-28T08:33:16;90.63;;;49.53;;
62788;SDS011;66401;42.016;21.454;2023-12-28T08:35:41;81.97;;;47.70;;
62788;SDS011;66401;42.016;21.454;2023-12-28T08:38:07;75.40;;;44.53;;
62788;SDS011;66401;42.016;21.454;2023-12-28T08:40:33;86.20;;;50.47;;
62788;SDS011;66401;42.016;21.454;2023-12-28T08:42:59;75.07;;;44.53;;
62788;SDS011;66401;42.016;21.454;2023-12-28T08:45:25;109.83;;;54.97;;
62788;SDS011;66401;42.016;21.454;2023-12-28T08:47:50;74.73;;;41.10;;
62788;SDS011;66401;42.016;21.454;2023-12-28T08:50:17;83.93;;;44.33;;
62788;SDS011;66401;42.016;21.454;2023-12-28T08:52:42;76.63;;;41.80;;
62788;SDS011;66401;42.016;21.454;2023-12-28T08:55:08;89.53;;;46.93;;
62788;SDS011;66401;42.016;21.454;2023-12-28T08:57:34;118.30;;;60.23;;
62788;SDS011;66401;42.016;21.454;2023-12-28T08:59:59;88.90;;;46.47;;
62788;SDS011;66401;42.016;21.454;2023-12-28T09:02:28;85.13;;;44.63;;
62788;SDS011;66401;42.016;21.454;2023-12-28T09:04:54;81.50;;;44.67;;
62788;SDS011;66401;42.016;21.454;2023-12-28T09:07:20;73.13;;;44.20;;
62788;SDS011;66401;42.016;21.454;2023-12-28T09:09:45;89.40;;;52.10;;
62788;SDS011;66401;42.016;21.454;2023-12-28T09:12:11;97.10;;;54.07;;
62788;SDS011;66401;42.016;21.454;2023-12-28T09:14:37;93.60;;;52.07;;
62788;SDS011;66401;42.016;21.454;2023-12-28T09:17:03;89.60;;;50.17;;
62788;SDS011;66401;42.016;21.454;2023-12-28T09:19:28;70.17;;;43.47;;
62788;SDS011;66401;42.016;21.454;2023-12-28T09:21:54;62.57;;;39.07;;
62788;SDS011;66401;42.016;21.454;2023-12-28T09:24:19;64.90;;;40.53;;
62788;SDS011;66401;42.016;21.454;2023-12-28T09:26:45;71.87;;;42.80;;
62788;SDS011;66401;42.016;21.454;2023-12-28T09:29:11;66.80;;;41.50;;
62788;SDS011;66401;42.016;21.454;2023-12-28T09:31:37;59.60;;;39.13;;
62788;SDS011;66401;42.016;21.454;2023-12-28T09:34:03;56.77;;;37.47;;
62788;SDS011;66401;42.016;21.454;2023-12-28T09:36:30;54.17;;;33.43;;
62788;SDS011;66401;42.016;21.454;2023-12-28T09:38:58;51.80;;;34.90;;
62788;SDS011;66401;42.016;21.454;2023-12-28T09:41:26;48.27;;;32.27;;
62788;SDS011;66401;42.016;21.454;2023-12-28T09:43:58;51.23;;;33.63;;
62788;SDS011;66401;42.016;21.454;2023-12-28T09:46:32;55.03;;;33.50;;
62788;SDS011;66401;42.016;21.454;2023-12-28T09:48:58;52.60;;;33.27;;
62788;SDS011;66401;42.016;21.454;2023-12-28T09:51:24;53.63;;;35.47;;
62788;SDS011;66401;42.016;21.454;2023-12-28T09:53:53;52.40;;;32.83;;
62788;SDS011;66401;42.016;21.454;2023-12-28T09:56:19;58.00;;;36.73;;
62788;SDS011;66401;42.016;21.454;2023-12-28T09:58:45;84.97;;;48.13;;
62788;SDS011;66401;42.016;21.454;2023-12-28T10:01:14;85.83;;;47.50;;
62788;SDS011;66401;42.016;21.454;2023-12-28T10:03:40;100.53;;;50.83;;
62788;SDS011;66401;42.016;21.454;2023-12-28T10:06:05;81.43;;;44.47;;
62788;SDS011;66401;42.016;21.454;2023-12-28T10:08:31;74.53;;;42.43;;
62788;SDS011;66401;42.016;21.454;2023-12-28T10:10:56;63.57;;;39.20;;
62788;SDS011;66401;42.016;21.454;2023-12-28T10:13:24;57.50;;;36.27;;
62788;SDS011;66401;42.016;21.454;2023-12-28T10:15:50;70.67;;;41.00;;
62788;SDS011;66401;42.016;21.454;2023-12-28T10:18:19;62.70;;;41.57;;
62788;SDS011;66401;42.016;21.454;2023-12-28T10:20:54;58.53;;;41.30;;
62788;SDS011;66401;42.016;21.454;2023-12-28T10:23:19;60.80;;;39.23;;
62788;SDS011;66401;42.016;21.454;2023-12-28T10:25:47;57.53;;;36.67;;
62788;SDS011;66401;42.016;21.454;2023-12-28T10:28:15;58.77;;;38.07;;
62788;SDS011;66401;42.016;21.454;2023-12-28T10:30:44;57.13;;;37.43;;
62788;SDS011;66401;42.016;21.454;2023-12-28T10:33:09;68.47;;;40.53;;
62788;SDS011;66401;42.016;21.454;2023-12-28T10:35:35;65.87;;;42.00;;
62788;SDS011;66401;42.016;21.454;2023-12-28T10:38:00;75.37;;;42.17;;
62788;SDS011;66401;42.016;21.454;2023-12-28T10:40:28;71.77;;;43.13;;
62788;SDS011;66401;42.016;21.454;2023-12-28T10:42:59;73.57;;;44.13;;
62788;SDS011;66401;42.016;21.454;2023-12-28T10:45:33;67.93;;;40.10;;
62788;SDS011;66401;42.016;21.454;2023-12-28T10:50:40;61.50;;;41.20;;
62788;SDS011;66401;42.016;21.454;2023-12-28T10:56:00;54.63;;;37.47;;
62788;SDS011;66401;42.016;21.454;2023-12-28T11:01:12;62.23;;;33.07;;
62788;SDS011;66401;42.016;21.454;2023-12-28T11:03:41;55.33;;;33.37;;
62788;SDS011;66401;42.016;21.454;2023-12-28T11:06:12;52.83;;;38.37;;
62788;SDS011;66401;42.016;21.454;2023-12-28T11:08:41;57.93;;;37.23;;
62788;SDS011;66401;42.016;21.454;2023-12-28T11:11:09;60.47;;;38.37;;
62788;SDS011;66401;42.016;21.454;2023-12-28T11:13:36;54.10;;;37.40;;
62788;SDS011;66401;42.016;21.454;2023-12-28T11:16:03;63.20;;;38.07;;
62788;SDS011;66401;42.016;21.454;2023-12-28T11:18:29;65.27;;;39.83;;
62788;SDS011;66401;42.016;21.454;2023-12-28T11:20:55;72.37;;;41.50;;
62788;SDS011;66401;42.016;21.454;2023-12-28T11:23:21;61.37;;;39.63;;
62788;SDS011;66401;42.016;21.454;2023-12-28T11:25:47;64.90;;;36.77;;
62788;SDS011;66401;42.016;21.454;2023-12-28T11:28:12;56.03;;;36.67;;
62788;SDS011;66401;42.016;21.454;2023-12-28T11:30:41;55.57;;;34.50;;
62788;SDS011;66401;42.016;21.454;2023-12-28T11:33:07;59.80;;;34.47;;
62788;SDS011;66401;42.016;21.454;2023-12-28T11:35:36;60.93;;;35.63;;
62788;SDS011;66401;42.016;21.454;2023-12-28T11:38:03;65.57;;;37.43;;
62788;SDS011;66401;42.016;21.454;2023-12-28T11:40:39;55.00;;;31.93;;
62788;SDS011;66401;42.016;21.454;2023-12-28T11:43:19;47.57;;;30.33;;
62788;SDS011;66401;42.016;21.454;2023-12-28T11:45:54;51.97;;;30.23;;
62788;SDS011;66401;42.016;21.454;2023-12-28T11:48:24;69.77;;;45.67;;
62788;SDS011;66401;42.016;21.454;2023-12-28T11:50:50;73.83;;;44.37;;
62788;SDS011;66401;42.016;21.454;2023-12-28T11:53:19;68.07;;;43.43;;
62788;SDS011;66401;42.016;21.454;2023-12-28T11:55:45;75.13;;;43.63;;
62788;SDS011;66401;42.016;21.454;2023-12-28T11:58:11;72.70;;;42.97;;
62788;SDS011;66401;42.016;21.454;2023-12-28T12:00:37;64.50;;;38.33;;
62788;SDS011;66401;42.016;21.454;2023-12-28T12:03:02;64.93;;;41.83;;
62788;SDS011;66401;42.016;21.454;2023-12-28T12:05:28;62.70;;;41.10;;
62788;SDS011;66401;42.016;21.454;2023-12-28T12:07:54;61.23;;;38.77;;
62788;SDS011;66401;42.016;21.454;2023-12-28T12:10:20;62.13;;;37.93;;
62788;SDS011;66401;42.016;21.454;2023-12-28T12:12:46;69.33;;;40.37;;
62788;SDS011;66401;42.016;21.454;2023-12-28T12:15:12;66.63;;;40.87;;
62788;SDS011;66401;42.016;21.454;2023-12-28T12:17:38;65.30;;;40.63;;
62788;SDS011;66401;42.016;21.454;2023-12-28T12:20:04;64.47;;;38.87;;
62788;SDS011;66401;42.016;21.454;2023-12-28T12:22:31;62.43;;;38.80;;
62788;SDS011;66401;42.016;21.454;2023-12-28T12:24:57;65.43;;;36.97;;
62788;SDS011;66401;42.016;21.454;2023-12-28T12:27:30;59.60;;;34.97;;
62788;SDS011;66401;42.016;21.454;2023-12-28T12:29:55;65.27;;;38.17;;
62788;SDS011;66401;42.016;21.454;2023-12-28T12:32:21;59.40;;;34.73;;
62788;SDS011;66401;42.016;21.454;2023-12-28T12:34:47;55.87;;;33.63;;
62788;SDS011;66401;42.016;21.454;2023-12-28T12:37:14;51.83;;;32.70;;
62788;SDS011;66401;42.016;21.454;2023-12-28T12:39:40;52.67;;;31.43;;
62788;SDS011;66401;42.016;21.454;2023-12-28T12:42:05;56.57;;;32.33;;
62788;SDS011;66401;42.016;21.454;2023-12-28T12:44:32;49.80;;;31.07;;
62788;SDS011;66401;42.016;21.454;2023-12-28T12:46:58;55.10;;;32.23;;
62788;SDS011;66401;42.016;21.454;2023-12-28T12:49:24;55.33;;;32.63;;
62788;SDS011;66401;42.016;21.454;2023-12-28T12:51:50;58.27;;;33.17;;
62788;SDS011;66401;42.016;21.454;2023-12-28T12:54:16;51.00;;;30.27;;
62788;SDS011;66401;42.016;21.454;2023-12-28T12:56:46;49.90;;;30.87;;
62788;SDS011;66401;42.016;21.454;2023-12-28T12:59:13;56.93;;;29.87;;
62788;SDS011;66401;42.016;21.454;2023-12-28T13:01:41;50.27;;;29.33;;
62788;SDS011;66401;42.016;21.454;2023-12-28T13:04:07;56.07;;;35.87;;
62788;SDS011;66401;42.016;21.454;2023-12-28T13:06:33;60.27;;;33.33;;
62788;SDS011;66401;42.016;21.454;2023-12-28T13:08:59;48.67;;;28.30;;
62788;SDS011;66401;42.016;21.454;2023-12-28T13:11:25;50.30;;;29.90;;
62788;SDS011;66401;42.016;21.454;2023-12-28T13:13:51;45.73;;;30.37;;
62788;SDS011;66401;42.016;21.454;2023-12-28T13:16:17;55.07;;;30.30;;
62788;SDS011;66401;42.016;21.454;2023-12-28T13:18:43;52.03;;;29.93;;
62788;SDS011;66401;42.016;21.454;2023-12-28T13:21:09;46.77;;;27.23;;
62788;SDS011;66401;42.016;21.454;2023-12-28T13:23:34;57.33;;;30.37;;
62788;SDS011;66401;42.016;21.454;2023-12-28T13:26:00;55.50;;;31.00;;
62788;SDS011;66401;42.016;21.454;2023-12-28T13:28:25;46.57;;;27.93;;
62788;SDS011;66401;42.016;21.454;2023-12-28T13:30:51;44.33;;;26.77;;
62788;SDS011;66401;42.016;21.454;2023-12-28T13:33:20;48.83;;;26.33;;
62788;SDS011;66401;42.016;21.454;2023-12-28T13:35:46;40.47;;;24.50;;
62788;SDS011;66401;42.016;21.454;2023-12-28T13:38:12;51.47;;;26.10;;
62788;SDS011;66401;42.016;21.454;2023-12-28T13:40:37;50.77;;;25.80;;
62788;SDS011;66401;42.016;21.454;2023-12-28T13:43:03;47.37;;;25.23;;
62788;SDS011;66401;42.016;21.454;2023-12-28T13:45:28;45.07;;;22.43;;
62788;SDS011;66401;42.016;21.454;2023-12-28T13:47:55;42.53;;;23.23;;
62788;SDS011;66401;42.016;21.454;2023-12-28T13:50:21;37.03;;;23.00;;
62788;SDS011;66401;42.016;21.454;2023-12-28T13:52:46;48.03;;;25.03;;
62788;SDS011;66401;42.016;21.454;2023-12-28T13:55:12;37.27;;;20.97;;
62788;SDS011;66401;42.016;21.454;2023-12-28T13:57:38;38.40;;;21.47;;
62788;SDS011;66401;42.016;21.454;2023-12-28T14:00:04;37.00;;;21.50;;
62788;SDS011;66401;42.016;21.454;2023-12-28T14:02:30;40.50;;;21.90;;
62788;SDS011;66401;42.016;21.454;2023-12-28T14:04:56;49.60;;;26.47;;
62788;SDS011;66401;42.016;21.454;2023-12-28T14:07:22;56.77;;;31.30;;
62788;SDS011;66401;42.016;21.454;2023-12-28T14:09:48;67.33;;;35.53;;
62788;SDS011;66401;42.016;21.454;2023-12-28T14:12:14;74.43;;;34.57;;
62788;SDS011;66401;42.016;21.454;2023-12-28T14:14:40;65.37;;;33.67;;